LBVD weather

Vidin Smurdan Airfield
Vidin, Vidin Province, Bulgaria

Public forecast

Using degrees Celsius for public forecast. Weather courtesy of forecast.io.

Closest aviation weather report (METAR) to Vidin Smurdan Airfield

Closest report is Craiova Airport, 49.5 nm (91.6 km) ENE. Retrieved 2020/08/03 23:30 UTC (5 minutes ago):

LRCV 032330Z 07012KT CAVOK 20/11 Q1010

Closest aviation forecast (TAF) to Vidin Smurdan Airfield

Forecast is more than 12 hours old.

Closest forecast is Craiova Airport, 49.5 nm (91.6 km) ENE. Retrieved 2014/07/19 18:48 UTC (6 years ago):

TAF LRCV 191800Z 1918/2024 CNL